Time;durP1;ratioP1;P1;durP2;ratioP2;P2;SDS_P1;SDS_P2;PMS_P1;PMS_P2;Temp;Humidity;BMP_temperature;BMP_pressure;BME280_temperature;BME280_humidity;BME280_pressure;Samples;Min_cycle;Max_cycle;Signal;HPM_P1;HPM_P2
2023/06/30 00:00:41;;;;;;;7.10;6.40;;;23.60;60.60;;;;;;4804760;29;20160;-87
2023/06/30 00:03:07;;;;;;;6.88;6.28;;;23.60;61.40;;;;;;4789674;29;20178;-87
2023/06/30 00:05:33;;;;;;;6.43;5.82;;;23.60;60.60;;;;;;4805705;29;20229;-84
2023/06/30 00:07:59;;;;;;;6.50;5.90;;;23.50;60.50;;;;;;4805784;29;20162;-86
2023/06/30 00:10:25;;;;;;;5.95;5.45;;;23.60;60.70;;;;;;4789497;29;20175;-86
2023/06/30 00:12:55;;;;;;;6.85;6.25;;;23.60;60.70;;;;;;4804751;29;20564;-85
2023/06/30 00:15:21;;;;;;;6.75;6.15;;;23.60;60.70;;;;;;4774127;29;20213;-86
2023/06/30 00:17:48;;;;;;;6.80;6.20;;;23.60;60.90;;;;;;4804626;29;20616;-85
2023/06/30 00:20:14;;;;;;;6.95;6.25;;;23.50;60.80;;;;;;4804526;29;20163;-85
2023/06/30 00:22:40;;;;;;;6.43;5.82;;;23.50;60.80;;;;;;4789442;29;20273;-87
2023/06/30 00:25:06;;;;;;;6.75;6.10;;;23.60;60.90;;;;;;4804385;29;20198;-87
2023/06/30 00:27:32;;;;;;;6.38;5.82;;;23.50;60.80;;;;;;4790073;29;20198;-85
2023/06/30 00:29:58;;;;;;;6.85;5.88;;;23.50;60.80;;;;;;4806564;29;20644;-86
2023/06/30 00:32:24;;;;;;;6.65;6.05;;;23.50;60.80;;;;;;4807893;29;20168;-85
2023/06/30 00:34:50;;;;;;;6.57;5.97;;;23.50;60.80;;;;;;4808771;29;20249;-85
2023/06/30 00:37:16;;;;;;;7.25;6.55;;;23.50;60.80;;;;;;4807663;29;20249;-87
2023/06/30 00:39:42;;;;;;;6.57;5.97;;;23.50;60.70;;;;;;4807748;29;20245;-83
2023/06/30 00:42:08;;;;;;;6.45;5.85;;;23.50;60.80;;;;;;4792512;29;20186;-83
2023/06/30 00:44:34;;;;;;;6.65;6.03;;;23.50;60.90;;;;;;4808687;29;20202;-85
2023/06/30 00:47:00;;;;;;;6.45;5.85;;;23.50;60.90;;;;;;4792905;29;20174;-86
2023/06/30 00:49:27;;;;;;;6.95;6.35;;;23.50;61.00;;;;;;4807482;29;20163;-85
2023/06/30 00:51:53;;;;;;;6.80;6.20;;;23.50;60.90;;;;;;4807612;29;20608;-86
2023/06/30 00:54:19;;;;;;;6.22;5.63;;;23.50;60.90;;;;;;4807583;29;20178;-84
2023/06/30 00:56:45;;;;;;;6.55;5.95;;;23.60;61.00;;;;;;4807239;29;20187;-86
2023/06/30 00:59:11;;;;;;;6.53;5.82;;;23.50;60.90;;;;;;4808577;29;20166;-86
2023/06/30 01:01:43;;;;;;;6.25;5.65;;;23.50;61.00;;;;;;4807442;29;20167;-87
2023/06/30 01:04:35;;;;;;;6.65;6.05;;;23.50;61.00;;;;;;4808218;29;20271;-86
2023/06/30 01:07:22;;;;;;;7.05;6.35;;;23.50;61.00;;;;;;4792008;29;20267;-86
2023/06/30 01:09:53;;;;;;;6.90;6.20;;;23.40;61.00;;;;;;4807512;29;20544;-87
2023/06/30 01:12:20;;;;;;;6.90;6.30;;;23.50;61.20;;;;;;4807018;29;20615;-85
2023/06/30 01:14:46;;;;;;;6.65;6.05;;;23.40;61.10;;;;;;4791937;29;20194;-86
2023/06/30 01:17:12;;;;;;;6.40;5.80;;;23.50;61.10;;;;;;4792242;29;20178;-86
2023/06/30 01:19:39;;;;;;;6.82;6.22;;;23.40;61.20;;;;;;4808019;29;20163;-86
2023/06/30 01:22:13;;;;;;;6.30;5.70;;;23.40;61.10;;;;;;4806874;29;20556;-85
2023/06/30 01:24:39;;;;;;;6.55;5.95;;;23.40;61.20;;;;;;4806979;29;20213;-86
2023/06/30 01:27:05;;;;;;;6.30;5.70;;;23.40;61.20;;;;;;4806888;29;20619;-87
2023/06/30 01:29:32;;;;;;;6.70;6.10;;;23.40;61.20;;;;;;4806619;29;20159;-84
2023/06/30 01:32:00;;;;;;;6.90;6.20;;;23.40;61.20;;;;;;4792140;29;20525;-84
2023/06/30 01:34:27;;;;;;;6.32;5.72;;;23.40;62.20;;;;;;4821224;29;20655;-87
2023/06/30 01:36:55;;;;;;;6.68;5.97;;;23.40;61.20;;;;;;4821242;29;20191;-84
2023/06/30 01:39:23;;;;;;;6.47;5.88;;;23.40;61.20;;;;;;4805975;29;20529;-87
2023/06/30 01:41:51;;;;;;;6.60;6.00;;;23.40;61.20;;;;;;4805270;29;20251;-85
2023/06/30 01:44:19;;;;;;;6.40;5.80;;;23.30;61.20;;;;;;4821031;29;20219;-87
2023/06/30 01:46:47;;;;;;;6.70;6.05;;;23.40;61.20;;;;;;4805682;29;20244;-84
2023/06/30 01:49:15;;;;;;;6.75;6.05;;;23.40;61.30;;;;;;4806003;29;20191;-85
2023/06/30 01:51:42;;;;;;;6.38;5.75;;;23.40;61.30;;;;;;4821186;29;20225;-84
2023/06/30 01:54:10;;;;;;;6.63;6.03;;;23.40;61.30;;;;;;4820821;29;20191;-86
2023/06/30 01:56:37;;;;;;;7.05;6.35;;;23.40;61.40;;;;;;4820773;29;20202;-85
2023/06/30 01:59:05;;;;;;;6.75;6.15;;;23.40;61.40;;;;;;4805459;29;20190;-84
2023/06/30 02:01:32;;;;;;;6.32;5.72;;;23.40;61.40;;;;;;4820705;29;20198;-86
2023/06/30 02:04:02;;;;;;;6.20;5.60;;;23.40;61.50;;;;;;4820628;29;20220;-86
2023/06/30 02:06:32;;;;;;;6.13;5.53;;;23.40;61.50;;;;;;4820690;29;20546;-88
2023/06/30 02:08:59;;;;;;;6.55;5.93;;;23.40;61.60;;;;;;4820708;29;20186;-86
2023/06/30 02:11:27;;;;;;;6.82;5.75;;;23.40;61.60;;;;;;4805505;29;20629;-87
2023/06/30 02:13:54;;;;;;;7.00;6.30;;;23.30;61.50;;;;;;4820374;29;20187;-85
2023/06/30 02:16:21;;;;;;;6.28;5.68;;;23.30;61.60;;;;;;4805066;29;20201;-85
2023/06/30 02:18:51;;;;;;;6.05;5.47;;;23.30;61.50;;;;;;4820526;29;20190;-85
2023/06/30 02:21:18;;;;;;;6.75;6.13;;;23.30;61.60;;;;;;4804629;29;20197;-85
2023/06/30 02:23:45;;;;;;;6.88;6.18;;;23.40;61.60;;;;;;4804864;29;20245;-84
2023/06/30 02:26:12;;;;;;;6.80;6.20;;;23.40;62.50;;;;;;4804662;29;20655;-85
2023/06/30 02:28:39;;;;;;;6.10;5.50;;;23.30;61.60;;;;;;4789882;29;20190;-86
2023/06/30 02:31:05;;;;;;;6.25;5.70;;;23.30;61.60;;;;;;4804912;29;20262;-87
2023/06/30 02:33:32;;;;;;;6.50;5.90;;;23.40;61.60;;;;;;4775211;29;20191;-84
2023/06/30 02:35:59;;;;;;;6.80;6.20;;;23.40;61.60;;;;;;4775017;29;20659;-87
2023/06/30 02:38:25;;;;;;;6.40;5.80;;;23.30;61.60;;;;;;4775255;29;20195;-85
2023/06/30 02:40:52;;;;;;;6.45;5.85;;;23.30;61.70;;;;;;4805543;29;20170;-87
2023/06/30 02:43:18;;;;;;;6.50;5.90;;;23.30;61.80;;;;;;4805587;29;20247;-85
2023/06/30 02:45:44;;;;;;;6.57;5.97;;;23.30;61.80;;;;;;4790390;29;20210;-88
2023/06/30 02:48:10;;;;;;;6.55;5.95;;;23.30;61.80;;;;;;4805563;29;20627;-86
2023/06/30 02:50:36;;;;;;;7.10;6.40;;;23.30;61.80;;;;;;4790347;29;20185;-87
2023/06/30 02:53:02;;;;;;;6.85;6.22;;;23.20;61.80;;;;;;4806446;29;20249;-87
2023/06/30 02:55:28;;;;;;;6.88;6.20;;;23.30;61.80;;;;;;4805683;29;20197;-86
2023/06/30 02:57:54;;;;;;;6.10;5.50;;;23.30;61.80;;;;;;4791260;29;20206;-85
2023/06/30 03:00:20;;;;;;;6.70;6.10;;;23.20;61.80;;;;;;4790184;29;20178;-87
2023/06/30 03:02:47;;;;;;;7.35;6.65;;;23.20;61.80;;;;;;4790194;29;20179;-85
2023/06/30 03:05:13;;;;;;;6.32;5.72;;;23.20;61.80;;;;;;4806572;29;20226;-86
2023/06/30 03:07:39;;;;;;;6.38;5.78;;;23.30;61.90;;;;;;4805197;29;20155;-84
2023/06/30 03:10:05;;;;;;;6.57;5.97;;;23.30;62.80;;;;;;4806546;29;20170;-86
2023/06/30 03:12:31;;;;;;;6.40;5.80;;;23.20;62.00;;;;;;4805353;29;20187;-85
2023/06/30 03:14:57;;;;;;;6.35;5.75;;;23.30;62.00;;;;;;4806225;29;20195;-84
2023/06/30 03:17:23;;;;;;;6.72;6.13;;;23.20;61.90;;;;;;4806236;29;20171;-85
2023/06/30 03:19:49;;;;;;;6.97;6.30;;;23.30;62.00;;;;;;4790025;29;20175;-87
2023/06/30 03:22:15;;;;;;;6.18;5.57;;;23.20;61.90;;;;;;4806112;29;20174;-85
2023/06/30 03:24:41;;;;;;;6.60;6.00;;;23.20;62.00;;;;;;4790088;29;20271;-84
2023/06/30 03:27:07;;;;;;;5.88;5.38;;;23.20;61.90;;;;;;4806114;29;20246;-85
2023/06/30 03:29:32;;;;;;;6.78;6.15;;;23.20;61.90;;;;;;4789635;29;20178;-87
2023/06/30 03:31:58;;;;;;;6.20;5.60;;;23.30;62.00;;;;;;4804965;29;20167;-85
2023/06/30 03:34:24;;;;;;;6.55;5.95;;;23.20;62.00;;;;;;4790591;29;20611;-85
2023/06/30 03:36:50;;;;;;;6.40;5.80;;;23.30;61.90;;;;;;4805069;29;20179;-88
2023/06/30 03:39:16;;;;;;;6.82;6.15;;;23.30;62.00;;;;;;4804915;29;20179;-87
2023/06/30 03:41:42;;;;;;;6.22;5.63;;;23.30;62.00;;;;;;4804874;29;20199;-87
2023/06/30 03:44:11;;;;;;;6.35;5.75;;;23.20;61.90;;;;;;4789660;29;20293;-87
2023/06/30 03:46:37;;;;;;;6.05;5.53;;;23.30;62.00;;;;;;4790530;29;20177;-87
2023/06/30 03:49:03;;;;;;;6.63;5.93;;;23.20;61.80;;;;;;4805881;29;20159;-87
2023/06/30 03:51:29;;;;;;;5.90;5.40;;;23.20;61.90;;;;;;4790078;29;20539;-85
2023/06/30 03:53:55;;;;;;;6.20;5.60;;;23.20;61.90;;;;;;4806009;29;20163;-85
2023/06/30 03:56:21;;;;;;;6.40;5.80;;;23.20;61.90;;;;;;4790134;29;20175;-88
2023/06/30 03:58:47;;;;;;;6.30;5.70;;;23.30;62.00;;;;;;4806359;29;20531;-86
2023/06/30 04:01:13;;;;;;;6.35;5.75;;;23.20;62.00;;;;;;4789871;29;20178;-87
2023/06/30 04:03:39;;;;;;;6.28;5.68;;;23.30;61.80;;;;;;4790843;29;20182;-89
2023/06/30 04:06:10;;;;;;;6.78;6.07;;;23.30;61.80;;;;;;4793657;29;20191;-87
2023/06/30 04:08:36;;;;;;;6.80;6.20;;;23.20;62.00;;;;;;4777956;29;20244;-87
2023/06/30 04:11:02;;;;;;;6.80;6.10;;;23.30;62.00;;;;;;4808552;29;20638;-85
2023/06/30 04:13:28;;;;;;;6.20;5.60;;;23.30;61.90;;;;;;4793567;29;20167;-86
2023/06/30 04:15:54;;;;;;;6.15;5.55;;;23.30;61.90;;;;;;4793054;29;20215;-85
2023/06/30 04:18:20;;;;;;;6.60;5.72;;;23.20;62.00;;;;;;4808309;29;20692;-85
2023/06/30 04:20:47;;;;;;;6.85;6.15;;;23.20;61.90;;;;;;4808041;29;20167;-85
2023/06/30 04:23:17;;;;;;;6.75;6.13;;;23.30;62.00;;;;;;4808593;29;20641;-85
2023/06/30 04:25:43;;;;;;;6.22;5.63;;;23.20;62.00;;;;;;4777486;29;20230;-87
2023/06/30 04:28:09;;;;;;;6.70;5.97;;;23.20;61.90;;;;;;4808196;29;20159;-86
2023/06/30 04:30:34;;;;;;;6.43;5.82;;;23.30;61.90;;;;;;4790030;29;20747;-85
2023/06/30 04:33:00;;;;;;;6.40;5.80;;;23.20;62.00;;;;;;4789935;30;20183;-84
2023/06/30 04:35:30;;;;;;;6.70;6.10;;;23.20;62.00;;;;;;4805158;29;20588;-87
2023/06/30 04:37:56;;;;;;;6.18;5.57;;;23.20;62.00;;;;;;4804777;29;20683;-85
2023/06/30 04:40:22;;;;;;;6.10;5.50;;;23.20;62.00;;;;;;4789967;30;20171;-86
2023/06/30 04:42:48;;;;;;;6.20;5.60;;;23.20;62.10;;;;;;4790442;30;20595;-85
2023/06/30 04:45:14;;;;;;;6.47;5.88;;;23.20;62.00;;;;;;4790122;30;20203;-86
2023/06/30 04:47:44;;;;;;;6.40;5.72;;;23.20;62.00;;;;;;4804654;29;20167;-87
2023/06/30 04:50:10;;;;;;;6.50;5.90;;;23.20;62.00;;;;;;4804209;29;20668;-86
2023/06/30 04:52:36;;;;;;;5.97;5.47;;;23.20;61.90;;;;;;4791241;30;20175;-85
2023/06/30 04:55:03;;;;;;;6.00;5.47;;;23.30;61.90;;;;;;4805764;29;20423;-87
2023/06/30 04:57:30;;;;;;;6.25;5.53;;;23.30;61.80;;;;;;4805284;29;20160;-88
2023/06/30 04:59:56;;;;;;;6.30;5.70;;;23.30;61.80;;;;;;4805048;29;20175;-87
2023/06/30 05:02:23;;;;;;;6.55;5.95;;;23.30;61.80;;;;;;4805083;29;20164;-88
2023/06/30 05:04:51;;;;;;;6.45;5.85;;;23.30;61.90;;;;;;4789590;29;20195;-85
2023/06/30 05:07:16;;;;;;;6.30;5.70;;;23.30;61.70;;;;;;4804798;29;20221;-87
2023/06/30 05:09:42;;;;;;;6.05;5.45;;;23.30;61.70;;;;;;4789354;30;20171;-87
2023/06/30 05:12:08;;;;;;;6.35;5.75;;;23.30;61.90;;;;;;4789340;29;20171;-86
2023/06/30 05:14:34;;;;;;;6.28;5.75;;;23.30;61.80;;;;;;4789209;29;20535;-88
2023/06/30 05:16:59;;;;;;;5.82;5.22;;;23.30;61.80;;;;;;4788152;30;20233;-86
2023/06/30 05:19:26;;;;;;;5.70;5.20;;;23.30;61.70;;;;;;4789206;29;20182;-88
2023/06/30 05:21:52;;;;;;;6.30;5.70;;;23.40;61.60;;;;;;4790318;29;20216;-87
2023/06/30 05:24:18;;;;;;;5.57;5.07;;;23.40;61.60;;;;;;4790220;29;20194;-86
2023/06/30 05:26:45;;;;;;;6.82;6.13;;;23.40;61.60;;;;;;4790582;29;20635;-85
2023/06/30 05:29:11;;;;;;;6.28;5.68;;;23.30;61.60;;;;;;4789797;30;20172;-86
2023/06/30 05:31:36;;;;;;;6.28;5.68;;;23.40;61.60;;;;;;4789098;30;20303;-87
2023/06/30 05:34:02;;;;;;;6.38;5.78;;;23.40;61.70;;;;;;4804571;29;20176;-84
2023/06/30 05:36:29;;;;;;;6.72;6.03;;;23.30;61.70;;;;;;4804590;29;20179;-85
2023/06/30 05:38:56;;;;;;;5.82;5.32;;;23.40;61.60;;;;;;4804077;29;20174;-87
2023/06/30 05:41:26;;;;;;;6.10;5.50;;;23.30;62.10;;;;;;4804246;29;20163;-87
2023/06/30 05:43:52;;;;;;;5.70;5.20;;;23.30;62.80;;;;;;4803117;29;20191;-88
2023/06/30 05:46:19;;;;;;;5.28;4.78;;;23.30;63.00;;;;;;4788795;30;20168;-87
2023/06/30 05:48:49;;;;;;;6.03;5.43;;;23.30;63.20;;;;;;4804303;29;20183;-85
2023/06/30 05:51:14;;;;;;;5.13;4.63;;;23.40;63.60;;;;;;4788115;29;20191;-85
2023/06/30 05:53:41;;;;;;;5.03;4.63;;;23.40;63.60;;;;;;4788710;30;20171;-88
2023/06/30 05:56:07;;;;;;;5.30;4.80;;;23.40;63.70;;;;;;4789436;29;20762;-86
2023/06/30 05:58:32;;;;;;;5.15;4.38;;;23.40;63.60;;;;;;4803774;29;20186;-86
2023/06/30 06:00:59;;;;;;;5.25;4.75;;;23.50;63.70;;;;;;4788689;30;20179;-86
2023/06/30 06:03:30;;;;;;;5.18;4.68;;;23.50;63.40;;;;;;4803859;29;20163;-86
2023/06/30 06:05:57;;;;;;;5.20;4.70;;;23.50;63.50;;;;;;4786818;29;20211;-88
2023/06/30 06:08:27;;;;;;;4.70;4.30;;;23.50;63.70;;;;;;4771259;30;20660;-86
2023/06/30 06:10:53;;;;;;;5.10;4.60;;;23.50;63.80;;;;;;4770703;30;20551;-85
2023/06/30 06:13:33;;;;;;;4.90;4.40;;;23.60;63.80;;;;;;4778270;30;20175;-86
2023/06/30 06:15:59;;;;;;;4.97;4.47;;;23.50;63.60;;;;;;4790325;29;20201;-88
2023/06/30 06:18:24;;;;;;;5.22;4.72;;;23.50;63.70;;;;;;4770583;30;20184;-86
2023/06/30 06:20:50;;;;;;;4.70;4.30;;;23.50;63.80;;;;;;4783224;30;20253;-85
2023/06/30 06:23:16;;;;;;;4.40;4.00;;;23.50;64.10;;;;;;4799246;29;20175;-88
2023/06/30 06:25:46;;;;;;;5.03;4.53;;;23.50;64.30;;;;;;4787529;30;20310;-87
2023/06/30 06:28:12;;;;;;;5.00;4.50;;;23.50;64.10;;;;;;4800525;29;20191;-86
2023/06/30 06:30:37;;;;;;;5.10;4.60;;;23.60;64.10;;;;;;4787861;29;20235;-87
2023/06/30 06:33:03;;;;;;;4.50;4.10;;;23.60;64.10;;;;;;4788245;30;20274;-89
2023/06/30 06:35:29;;;;;;;4.40;4.00;;;23.60;64.10;;;;;;4789234;30;20176;-88
2023/06/30 06:37:55;;;;;;;4.68;4.28;;;23.50;64.70;;;;;;4788825;30;20172;-87
2023/06/30 06:40:21;;;;;;;4.60;4.20;;;23.60;64.30;;;;;;4803608;29;20194;-88
2023/06/30 06:43:00;;;;;;;4.90;4.50;;;23.60;64.10;;;;;;4808911;29;20210;-88
2023/06/30 06:45:50;;;;;;;5.22;4.25;;;23.50;64.30;;;;;;4810891;29;20222;-88
2023/06/30 06:48:21;;;;;;;4.97;4.38;;;23.50;64.40;;;;;;4780883;29;20251;-85
2023/06/30 06:50:56;;;;;;;6.65;4.65;;;23.50;64.80;;;;;;4804938;29;20199;-86
2023/06/30 07:06:51;;;;;;;4.70;4.30;;;23.50;64.80;;;;;;4806584;29;20574;-86
2023/06/30 07:13:07;;;;;;;5.30;4.80;;;23.60;64.80;;;;;;4807266;29;20270;-86
2023/06/30 07:15:53;;;;;;;5.90;4.38;;;23.70;64.50;;;;;;4788229;29;20650;-83
2023/06/30 07:18:20;;;;;;;4.90;4.40;;;23.70;64.70;;;;;;4801445;29;20192;-84
2023/06/30 07:20:47;;;;;;;4.72;4.30;;;23.70;64.70;;;;;;4787278;30;20184;-86
2023/06/30 07:23:13;;;;;;;5.05;4.55;;;23.70;64.70;;;;;;4802602;29;20683;-86
2023/06/30 07:25:39;;;;;;;4.80;4.30;;;23.60;65.00;;;;;;4799129;29;20196;-87
2023/06/30 07:28:04;;;;;;;4.28;3.88;;;23.70;65.10;;;;;;4799216;29;20161;-84
2023/06/30 07:30:30;;;;;;;4.47;4.07;;;23.60;65.00;;;;;;4777411;30;20223;-86
2023/06/30 07:32:55;;;;;;;4.43;3.90;;;23.70;64.70;;;;;;4802474;29;20239;-85
2023/06/30 07:35:22;;;;;;;4.55;4.15;;;23.80;64.50;;;;;;4787770;30;20183;-85
2023/06/30 07:37:48;;;;;;;5.10;4.13;;;23.80;64.40;;;;;;4788294;29;20159;-85
2023/06/30 07:40:14;;;;;;;4.30;3.90;;;23.80;64.60;;;;;;4804879;29;20188;-85
2023/06/30 07:42:40;;;;;;;4.20;3.80;;;23.80;64.50;;;;;;4805939;29;20175;-86
2023/06/30 07:45:08;;;;;;;4.45;4.05;;;23.90;64.50;;;;;;4802193;29;20336;-87
2023/06/30 07:47:36;;;;;;;4.72;4.30;;;23.80;64.60;;;;;;4808949;29;20159;-86
2023/06/30 07:50:09;;;;;;;5.47;4.10;;;23.90;64.40;;;;;;4808099;29;20182;-85
2023/06/30 07:52:37;;;;;;;4.60;4.20;;;23.90;64.50;;;;;;4809878;29;20162;-84
2023/06/30 07:55:04;;;;;;;3.65;3.35;;;24.00;64.40;;;;;;4808660;29;20174;-85
2023/06/30 07:57:30;;;;;;;4.72;3.88;;;24.00;64.30;;;;;;4810115;29;20261;-85
2023/06/30 07:59:55;;;;;;;5.47;3.70;;;24.00;64.20;;;;;;4808744;29;20590;-83
2023/06/30 08:02:22;;;;;;;4.25;3.83;;;23.90;64.20;;;;;;4808921;29;20224;-85
2023/06/30 08:04:49;;;;;;;4.90;3.83;;;23.90;64.40;;;;;;4793724;29;20232;-84
2023/06/30 08:07:15;;;;;;;5.45;3.80;;;23.80;64.60;;;;;;4809670;29;20159;-84
2023/06/30 08:09:41;;;;;;;4.10;3.70;;;24.00;64.30;;;;;;4808464;29;20167;-86
2023/06/30 08:12:08;;;;;;;4.43;4.03;;;24.00;64.30;;;;;;4808349;29;20169;-84
2023/06/30 08:14:35;;;;;;;4.15;3.75;;;24.00;64.20;;;;;;4808314;29;20184;-84
2023/06/30 08:17:02;;;;;;;5.13;3.95;;;24.00;64.50;;;;;;4793269;29;20179;-84
2023/06/30 08:19:28;;;;;;;4.38;3.88;;;24.00;64.20;;;;;;4808281;29;20162;-85
2023/06/30 08:21:54;;;;;;;4.30;3.90;;;23.90;64.20;;;;;;4793103;29;20170;-86
2023/06/30 08:24:20;;;;;;;5.03;4.05;;;24.00;64.10;;;;;;4792941;29;20202;-86
2023/06/30 08:26:47;;;;;;;4.43;3.92;;;24.00;64.20;;;;;;4793000;29;20192;-85
2023/06/30 08:29:13;;;;;;;4.10;3.70;;;24.00;64.20;;;;;;4808665;29;20741;-84
2023/06/30 08:31:40;;;;;;;4.03;3.63;;;24.00;64.00;;;;;;4803862;29;20227;-86
2023/06/30 08:34:08;;;;;;;4.30;3.90;;;24.10;64.20;;;;;;4789445;30;20195;-86
2023/06/30 08:36:34;;;;;;;4.20;3.80;;;24.10;63.90;;;;;;4777372;29;20279;-86
2023/06/30 08:38:59;;;;;;;4.95;4.40;;;24.10;64.10;;;;;;4804690;29;20286;-86
2023/06/30 08:41:30;;;;;;;4.47;3.80;;;24.00;64.20;;;;;;4803069;29;20243;-86
2023/06/30 08:43:56;;;;;;;4.18;3.78;;;24.00;64.70;;;;;;4772356;30;20682;-86
2023/06/30 08:46:22;;;;;;;4.70;4.30;;;23.90;64.90;;;;;;4802145;29;20398;-85
2023/06/30 08:48:49;;;;;;;4.45;4.05;;;23.80;65.00;;;;;;4803649;29;20258;-84
2023/06/30 08:51:16;;;;;;;4.50;4.10;;;23.80;65.10;;;;;;4788653;29;20186;-83
2023/06/30 08:53:41;;;;;;;4.57;4.13;;;23.80;65.30;;;;;;4790672;29;20156;-85
2023/06/30 08:56:08;;;;;;;4.45;4.00;;;23.80;65.40;;;;;;4804705;29;20232;-84
2023/06/30 08:58:33;;;;;;;4.15;3.75;;;23.70;65.40;;;;;;4804750;29;20513;-82
2023/06/30 09:00:59;;;;;;;4.40;3.92;;;23.80;65.20;;;;;;4789663;30;20266;-84
2023/06/30 09:03:25;;;;;;;4.13;3.75;;;23.90;65.10;;;;;;4804475;29;20164;-83
2023/06/30 09:05:53;;;;;;;4.13;3.70;;;23.90;65.00;;;;;;4789380;29;20289;-84
2023/06/30 09:08:21;;;;;;;4.10;3.70;;;23.90;65.00;;;;;;4789598;30;20171;-83
2023/06/30 09:10:47;;;;;;;4.28;3.88;;;23.90;65.80;;;;;;4804381;29;20266;-86
2023/06/30 09:13:13;;;;;;;3.92;3.58;;;23.90;65.00;;;;;;4804190;29;20695;-83
2023/06/30 09:15:39;;;;;;;4.47;4.07;;;23.90;65.00;;;;;;4805052;29;20172;-84
2023/06/30 09:18:04;;;;;;;4.32;3.72;;;23.90;65.00;;;;;;4805975;29;20323;-85
2023/06/30 09:20:30;;;;;;;4.35;3.95;;;23.90;65.10;;;;;;4806299;29;20182;-84
2023/06/30 09:22:57;;;;;;;6.03;4.13;;;23.90;65.20;;;;;;4805697;29;20168;-85
2023/06/30 09:25:42;;;;;;;4.50;4.10;;;23.90;65.20;;;;;;4789818;30;20208;-85
2023/06/30 09:28:12;;;;;;;4.55;4.10;;;23.90;65.40;;;;;;4802468;29;20152;-84
2023/06/30 09:30:40;;;;;;;4.43;4.00;;;23.80;65.20;;;;;;4789154;30;20238;-85
2023/06/30 09:33:07;;;;;;;4.88;3.97;;;23.90;65.40;;;;;;4803825;29;20180;-85
2023/06/30 09:35:38;;;;;;;5.00;4.20;;;23.90;65.30;;;;;;4788990;30;20555;-85
2023/06/30 09:38:15;;;;;;;4.28;3.88;;;23.90;65.30;;;;;;4785275;30;20187;-85
2023/06/30 09:40:43;;;;;;;4.22;3.83;;;23.90;65.40;;;;;;4799689;29;20168;-84
2023/06/30 09:43:14;;;;;;;3.67;3.38;;;23.90;65.50;;;;;;4785438;30;20214;-86
2023/06/30 09:45:42;;;;;;;4.22;3.83;;;23.80;65.40;;;;;;4770530;30;20200;-84
2023/06/30 09:48:10;;;;;;;4.03;3.63;;;23.90;65.40;;;;;;4785111;30;20624;-85
2023/06/30 09:50:36;;;;;;;4.65;4.22;;;23.90;65.50;;;;;;4800432;29;20625;-86
2023/06/30 09:53:02;;;;;;;4.93;4.20;;;23.80;65.30;;;;;;4785663;30;20176;-86
2023/06/30 09:55:27;;;;;;;7.03;4.20;;;23.90;65.50;;;;;;4785440;30;20194;-86
2023/06/30 09:57:55;;;;;;;4.03;3.45;;;23.90;65.50;;;;;;4785355;30;20287;-85
2023/06/30 10:00:20;;;;;;;4.05;3.65;;;23.80;65.40;;;;;;4784895;30;20183;-86
2023/06/30 10:03:00;;;;;;;4.55;3.40;;;23.90;65.40;;;;;;4784512;29;20245;-85
2023/06/30 10:05:26;;;;;;;4.53;3.70;;;23.90;65.40;;;;;;4798822;29;20188;-84
2023/06/30 10:07:51;;;;;;;5.68;3.70;;;23.90;65.20;;;;;;4800099;29;20187;-84
2023/06/30 10:10:17;;;;;;;4.45;3.97;;;23.90;65.10;;;;;;4772816;30;20532;-84
2023/06/30 10:12:44;;;;;;;5.22;3.78;;;23.90;65.10;;;;;;4803862;29;20180;-85
2023/06/30 10:15:10;;;;;;;4.18;3.78;;;23.90;65.10;;;;;;4789996;29;20175;-86
2023/06/30 10:17:38;;;;;;;5.45;3.83;;;24.00;65.20;;;;;;4790594;29;20209;-86
2023/06/30 10:20:05;;;;;;;5.65;3.88;;;23.90;65.20;;;;;;4791142;29;20251;-84
2023/06/30 10:22:31;;;;;;;7.05;3.65;;;23.90;65.20;;;;;;4806011;29;20651;-86
2023/06/30 10:24:56;;;;;;;5.97;3.83;;;23.90;65.30;;;;;;4805467;29;20205;-85
2023/06/30 10:27:22;;;;;;;6.32;3.55;;;23.80;65.20;;;;;;4790137;29;20191;-85
2023/06/30 10:29:50;;;;;;;5.70;3.83;;;23.90;65.40;;;;;;4809053;29;20167;-85
2023/06/30 10:32:20;;;;;;;4.20;3.80;;;23.90;65.40;;;;;;4808371;29;20751;-85
2023/06/30 10:34:47;;;;;;;5.78;3.70;;;23.90;65.40;;;;;;4804170;29;20174;-85
2023/06/30 10:37:13;;;;;;;5.53;3.63;;;23.90;65.10;;;;;;4807560;29;20255;-86
2023/06/30 10:39:43;;;;;;;5.05;3.35;;;23.90;65.10;;;;;;4807538;29;20178;-86
2023/06/30 10:42:11;;;;;;;4.93;3.72;;;23.90;65.10;;;;;;4791564;30;20224;-88
2023/06/30 10:44:39;;;;;;;7.25;3.28;;;23.90;65.00;;;;;;4774536;30;20200;-85
2023/06/30 10:47:08;;;;;;;4.82;3.50;;;24.00;64.90;;;;;;4782349;30;20171;-86
2023/06/30 10:49:39;;;;;;;4.95;3.80;;;24.00;64.70;;;;;;4801543;29;20191;-86
2023/06/30 10:52:08;;;;;;;4.25;3.20;;;23.90;64.90;;;;;;4809932;29;20216;-85
2023/06/30 10:54:40;;;;;;;5.00;3.35;;;23.90;64.90;;;;;;4805979;29;20173;-84
2023/06/30 10:57:17;;;;;;;8.50;3.83;;;23.90;65.00;;;;;;4773483;30;20175;-84
2023/06/30 10:59:45;;;;;;;4.07;3.67;;;23.80;65.00;;;;;;4777009;29;20190;-85
2023/06/30 11:02:22;;;;;;;4.28;3.60;;;24.00;65.00;;;;;;4797040;29;20176;-87
2023/06/30 11:04:50;;;;;;;3.45;3.15;;;23.90;64.80;;;;;;4792865;29;20302;-87
2023/06/30 11:07:17;;;;;;;3.97;3.58;;;23.90;65.00;;;;;;4791913;29;20197;-88
2023/06/30 11:09:56;;;;;;;4.18;3.30;;;24.00;64.90;;;;;;4790596;29;20206;-86
2023/06/30 11:12:24;;;;;;;6.38;3.47;;;24.00;64.90;;;;;;4791071;29;20227;-85
2023/06/30 11:15:04;;;;;;;4.97;3.88;;;24.00;64.60;;;;;;4807417;29;20167;-90
2023/06/30 11:17:57;;;;;;;3.50;3.20;;;24.00;64.60;;;;;;4807611;29;20177;-87
2023/06/30 11:20:26;;;;;;;5.50;3.45;;;24.10;64.60;;;;;;4791879;29;20227;-87
2023/06/30 11:23:01;;;;;;;4.85;3.70;;;24.10;64.50;;;;;;4809275;29;20261;-87
2023/06/30 11:25:28;;;;;;;4.38;3.50;;;24.00;64.50;;;;;;4805036;29;20573;-83
2023/06/30 11:27:55;;;;;;;3.70;3.40;;;24.10;64.60;;;;;;4805125;29;20615;-84
2023/06/30 11:30:21;;;;;;;3.20;2.90;;;24.00;64.50;;;;;;4801875;29;20238;-85
2023/06/30 11:32:47;;;;;;;4.03;3.20;;;24.00;64.60;;;;;;4771945;30;20175;-87
2023/06/30 11:35:13;;;;;;;4.15;3.30;;;24.10;64.50;;;;;;4786826;30;20171;-85
2023/06/30 11:37:38;;;;;;;3.97;3.58;;;24.00;64.30;;;;;;4786492;30;20172;-85
2023/06/30 11:40:05;;;;;;;3.90;3.10;;;24.10;64.40;;;;;;4787154;30;20632;-82
2023/06/30 11:42:32;;;;;;;3.63;3.33;;;24.10;64.20;;;;;;4772052;30;20207;-83
2023/06/30 11:44:58;;;;;;;3.47;3.17;;;24.00;64.40;;;;;;4786892;30;20195;-84
2023/06/30 11:47:24;;;;;;;4.30;3.80;;;24.00;64.50;;;;;;4772343;30;20167;-87
2023/06/30 11:49:50;;;;;;;3.38;3.08;;;24.00;64.50;;;;;;4787428;30;20267;-87
2023/06/30 11:52:17;;;;;;;3.47;3.15;;;24.00;64.60;;;;;;4788062;30;20191;-84
2023/06/30 11:54:43;;;;;;;3.92;3.53;;;24.00;64.60;;;;;;4786832;30;20179;-87
2023/06/30 11:57:08;;;;;;;3.80;3.17;;;24.00;64.60;;;;;;4788082;30;20184;-84
2023/06/30 11:59:34;;;;;;;6.60;3.20;;;24.00;64.60;;;;;;4801755;29;20167;-87
2023/06/30 12:02:03;;;;;;;3.70;3.40;;;24.00;64.70;;;;;;4786526;30;20187;-86
2023/06/30 12:04:34;;;;;;;3.50;3.20;;;24.00;64.50;;;;;;4801515;29;20218;-88
2023/06/30 12:07:05;;;;;;;5.78;3.38;;;24.00;64.50;;;;;;4801732;29;20163;-86
2023/06/30 12:09:31;;;;;;;3.30;3.00;;;24.00;64.40;;;;;;4785949;30;20274;-87
2023/06/30 12:11:58;;;;;;;3.95;3.10;;;24.00;64.30;;;;;;4786615;30;20183;-86
2023/06/30 12:14:26;;;;;;;3.35;3.05;;;24.00;64.30;;;;;;4786493;30;20198;-87
2023/06/30 12:16:51;;;;;;;3.13;2.78;;;24.00;64.10;;;;;;4801452;29;20586;-86
2023/06/30 12:19:22;;;;;;;3.78;3.47;;;24.00;63.90;;;;;;4786743;30;20221;-88
2023/06/30 12:21:52;;;;;;;3.15;2.85;;;24.00;63.60;;;;;;4801611;29;20691;-87
2023/06/30 12:24:19;;;;;;;3.00;2.70;;;24.00;64.00;;;;;;4786531;29;20215;-87
2023/06/30 12:26:45;;;;;;;4.18;3.22;;;24.10;63.90;;;;;;4804482;29;20232;-87
2023/06/30 12:29:10;;;;;;;3.33;3.03;;;24.00;63.50;;;;;;4804861;29;20648;-86
2023/06/30 12:31:36;;;;;;;3.53;3.17;;;24.00;63.30;;;;;;4804863;29;20586;-85
2023/06/30 12:34:02;;;;;;;3.30;3.00;;;24.10;63.20;;;;;;4792951;29;20542;-87
2023/06/30 12:36:28;;;;;;;3.22;2.92;;;24.10;63.50;;;;;;4792591;29;20206;-87
2023/06/30 12:38:54;;;;;;;3.10;2.80;;;24.10;63.70;;;;;;4807676;29;20167;-86
2023/06/30 12:41:20;;;;;;;3.38;3.08;;;24.00;63.70;;;;;;4792881;29;20237;-87
2023/06/30 12:43:46;;;;;;;3.25;2.95;;;24.10;63.60;;;;;;4809411;29;20200;-88
2023/06/30 12:46:12;;;;;;;3.13;2.70;;;24.10;63.70;;;;;;4811421;29;20195;-88
2023/06/30 12:48:38;;;;;;;3.15;2.85;;;24.00;63.60;;;;;;4821643;29;20191;-89
2023/06/30 12:51:05;;;;;;;3.50;3.20;;;24.00;63.50;;;;;;4809359;29;20174;-88
2023/06/30 12:53:31;;;;;;;3.50;2.85;;;24.00;63.50;;;;;;4823802;29;20169;-89
2023/06/30 12:55:57;;;;;;;3.40;2.80;;;24.00;63.40;;;;;;4809339;29;20175;-88
2023/06/30 12:58:24;;;;;;;3.30;3.00;;;24.00;63.60;;;;;;4824418;29;20670;-89
2023/06/30 13:00:53;;;;;;;2.85;2.65;;;24.00;63.40;;;;;;4824098;29;20234;-87
2023/06/30 13:03:19;;;;;;;3.58;2.58;;;24.00;63.40;;;;;;4808350;29;20175;-87
2023/06/30 13:05:46;;;;;;;3.20;2.90;;;24.00;63.20;;;;;;4811709;29;20201;-87